sensor_id;sensor_type;location;lat;lon;timestamp;P1;durP1;ratioP1;P2;durP2;ratioP2
63370;SDS011;49504;48.336;14.472;2022-07-01T03:07:26;2.00;;;0.60;;
63370;SDS011;49504;48.336;14.472;2022-07-01T03:12:27;2.40;;;0.70;;
63370;SDS011;49504;48.336;14.472;2022-07-01T03:17:29;1.25;;;0.52;;
63370;SDS011;49504;48.336;14.472;2022-07-01T03:22:34;2.20;;;0.80;;
63370;SDS011;49504;48.336;14.472;2022-07-01T03:28:50;2.92;;;0.90;;
63370;SDS011;49504;48.336;14.472;2022-07-01T03:33:51;1.88;;;0.60;;
63370;SDS011;49504;48.336;14.472;2022-07-01T03:42:50;2.45;;;0.82;;
63370;SDS011;49504;48.336;14.472;2022-07-01T03:47:52;2.40;;;0.70;;
63370;SDS011;49504;48.336;14.472;2022-07-01T03:52:53;2.35;;;0.90;;
63370;SDS011;49504;48.336;14.472;2022-07-01T03:57:56;2.63;;;0.88;;
63370;SDS011;49504;48.336;14.472;2022-07-01T04:02:57;2.20;;;1.02;;
63370;SDS011;49504;48.336;14.472;2022-07-01T04:07:58;2.92;;;0.98;;
63370;SDS011;49504;48.336;14.472;2022-07-01T04:13:00;2.90;;;1.00;;
63370;SDS011;49504;48.336;14.472;2022-07-01T04:18:02;2.60;;;0.80;;
63370;SDS011;49504;48.336;14.472;2022-07-01T04:23:03;3.72;;;1.02;;
63370;SDS011;49504;48.336;14.472;2022-07-01T04:28:06;3.50;;;0.90;;
63370;SDS011;49504;48.336;14.472;2022-07-01T04:33:07;3.45;;;1.02;;
63370;SDS011;49504;48.336;14.472;2022-07-01T04:38:08;2.95;;;1.15;;
63370;SDS011;49504;48.336;14.472;2022-07-01T04:43:10;13.73;;;4.30;;
63370;SDS011;49504;48.336;14.472;2022-07-01T04:48:11;8.15;;;1.88;;
63370;SDS011;49504;48.336;14.472;2022-07-01T04:53:12;15.90;;;5.18;;
63370;SDS011;49504;48.336;14.472;2022-07-01T04:58:15;9.88;;;3.25;;
63370;SDS011;49504;48.336;14.472;2022-07-01T05:03:16;12.48;;;4.25;;
63370;SDS011;49504;48.336;14.472;2022-07-01T05:08:17;25.42;;;8.50;;
63370;SDS011;49504;48.336;14.472;2022-07-01T05:13:19;24.20;;;8.00;;
63370;SDS011;49504;48.336;14.472;2022-07-01T05:18:20;26.17;;;7.95;;
63370;SDS011;49504;48.336;14.472;2022-07-01T05:23:21;21.58;;;8.10;;
63370;SDS011;49504;48.336;14.472;2022-07-01T05:28:23;18.83;;;7.20;;
63370;SDS011;49504;48.336;14.472;2022-07-01T05:33:24;19.95;;;6.88;;
63370;SDS011;49504;48.336;14.472;2022-07-01T05:38:25;17.48;;;5.78;;
63370;SDS011;49504;48.336;14.472;2022-07-01T05:43:28;16.98;;;5.50;;
63370;SDS011;49504;48.336;14.472;2022-07-01T05:48:29;16.73;;;5.55;;
63370;SDS011;49504;48.336;14.472;2022-07-01T05:53:30;11.88;;;4.85;;
63370;SDS011;49504;48.336;14.472;2022-07-01T05:58:32;9.60;;;3.65;;
63370;SDS011;49504;48.336;14.472;2022-07-01T06:03:33;11.40;;;4.50;;
63370;SDS011;49504;48.336;14.472;2022-07-01T06:08:34;9.18;;;3.92;;
63370;SDS011;49504;48.336;14.472;2022-07-01T06:13:37;11.65;;;3.83;;
63370;SDS011;49504;48.336;14.472;2022-07-01T06:18:38;10.95;;;4.47;;
63370;SDS011;49504;48.336;14.472;2022-07-01T06:23:39;8.75;;;3.38;;
63370;SDS011;49504;48.336;14.472;2022-07-01T06:28:41;9.65;;;3.90;;
63370;SDS011;49504;48.336;14.472;2022-07-01T06:33:42;9.20;;;3.50;;
63370;SDS011;49504;48.336;14.472;2022-07-01T06:38:43;9.40;;;3.67;;
63370;SDS011;49504;48.336;14.472;2022-07-01T06:43:45;8.95;;;3.20;;
63370;SDS011;49504;48.336;14.472;2022-07-01T06:48:47;10.50;;;3.75;;
63370;SDS011;49504;48.336;14.472;2022-07-01T06:53:48;7.55;;;3.53;;
63370;SDS011;49504;48.336;14.472;2022-07-01T06:58:50;7.28;;;2.85;;
63370;SDS011;49504;48.336;14.472;2022-07-01T07:03:51;6.47;;;2.78;;
63370;SDS011;49504;48.336;14.472;2022-07-01T07:08:52;6.82;;;2.50;;
63370;SDS011;49504;48.336;14.472;2022-07-01T07:13:55;6.22;;;2.70;;
63370;SDS011;49504;48.336;14.472;2022-07-01T07:18:56;5.32;;;2.60;;
63370;SDS011;49504;48.336;14.472;2022-07-01T07:23:57;7.07;;;2.53;;
63370;SDS011;49504;48.336;14.472;2022-07-01T07:28:59;6.80;;;2.53;;
63370;SDS011;49504;48.336;14.472;2022-07-01T07:34:00;7.10;;;2.70;;
63370;SDS011;49504;48.336;14.472;2022-07-01T07:39:01;5.93;;;2.70;;
63370;SDS011;49504;48.336;14.472;2022-07-01T07:44:04;7.82;;;3.00;;
63370;SDS011;49504;48.336;14.472;2022-07-01T07:49:05;7.45;;;2.65;;
63370;SDS011;49504;48.336;14.472;2022-07-01T07:54:06;5.47;;;2.42;;
63370;SDS011;49504;48.336;14.472;2022-07-01T07:59:08;6.07;;;2.50;;
63370;SDS011;49504;48.336;14.472;2022-07-01T08:04:09;6.57;;;2.25;;
63370;SDS011;49504;48.336;14.472;2022-07-01T08:09:10;5.90;;;2.67;;
63370;SDS011;49504;48.336;14.472;2022-07-01T08:14:12;4.72;;;2.05;;
63370;SDS011;49504;48.336;14.472;2022-07-01T08:19:13;6.00;;;2.15;;
63370;SDS011;49504;48.336;14.472;2022-07-01T08:24:14;7.85;;;2.47;;
63370;SDS011;49504;48.336;14.472;2022-07-01T08:29:17;5.72;;;2.30;;
63370;SDS011;49504;48.336;14.472;2022-07-01T08:34:18;5.18;;;2.10;;
63370;SDS011;49504;48.336;14.472;2022-07-01T08:39:19;4.80;;;2.08;;
63370;SDS011;49504;48.336;14.472;2022-07-01T08:44:22;4.22;;;2.00;;
63370;SDS011;49504;48.336;14.472;2022-07-01T08:49:24;4.20;;;1.77;;
63370;SDS011;49504;48.336;14.472;2022-07-01T08:54:25;4.70;;;2.20;;
63370;SDS011;49504;48.336;14.472;2022-07-01T08:59:28;4.50;;;1.77;;
63370;SDS011;49504;48.336;14.472;2022-07-01T09:04:29;5.55;;;2.00;;
63370;SDS011;49504;48.336;14.472;2022-07-01T09:09:33;4.50;;;1.73;;
63370;SDS011;49504;48.336;14.472;2022-07-01T09:14:37;4.88;;;2.00;;
63370;SDS011;49504;48.336;14.472;2022-07-01T09:19:38;5.25;;;1.92;;
63370;SDS011;49504;48.336;14.472;2022-07-01T09:24:39;5.25;;;2.53;;
63370;SDS011;49504;48.336;14.472;2022-07-01T09:29:44;4.40;;;1.88;;
63370;SDS011;49504;48.336;14.472;2022-07-01T09:34:47;3.60;;;1.73;;
63370;SDS011;49504;48.336;14.472;2022-07-01T09:39:50;4.25;;;2.00;;
63370;SDS011;49504;48.336;14.472;2022-07-01T09:44:55;4.15;;;1.80;;
63370;SDS011;49504;48.336;14.472;2022-07-01T09:49:58;4.35;;;1.85;;
63370;SDS011;49504;48.336;14.472;2022-07-01T09:55:00;4.07;;;1.95;;
63370;SDS011;49504;48.336;14.472;2022-07-01T10:00:03;4.47;;;1.80;;
63370;SDS011;49504;48.336;14.472;2022-07-01T10:05:07;4.50;;;1.88;;
63370;SDS011;49504;48.336;14.472;2022-07-01T10:10:21;4.53;;;1.77;;
63370;SDS011;49504;48.336;14.472;2022-07-01T10:15:38;4.38;;;1.80;;
63370;SDS011;49504;48.336;14.472;2022-07-01T10:20:45;3.47;;;1.60;;
63370;SDS011;49504;48.336;14.472;2022-07-01T10:25:48;5.55;;;2.17;;
63370;SDS011;49504;48.336;14.472;2022-07-01T10:34:24;3.65;;;1.73;;
63370;SDS011;49504;48.336;14.472;2022-07-01T10:45:00;4.22;;;2.03;;
63370;SDS011;49504;48.336;14.472;2022-07-01T10:50:09;3.75;;;1.60;;
63370;SDS011;49504;48.336;14.472;2022-07-01T10:55:11;4.15;;;1.92;;
63370;SDS011;49504;48.336;14.472;2022-07-01T11:10:34;3.38;;;1.58;;
63370;SDS011;49504;48.336;14.472;2022-07-01T11:15:35;4.18;;;2.00;;
63370;SDS011;49504;48.336;14.472;2022-07-01T11:20:37;3.80;;;1.60;;
63370;SDS011;49504;48.336;14.472;2022-07-01T11:25:38;3.60;;;1.90;;
63370;SDS011;49504;48.336;14.472;2022-07-01T11:30:40;3.58;;;1.88;;
63370;SDS011;49504;48.336;14.472;2022-07-01T11:35:42;3.42;;;1.70;;
63370;SDS011;49504;48.336;14.472;2022-07-01T11:40:44;4.70;;;1.98;;
63370;SDS011;49504;48.336;14.472;2022-07-01T11:45:45;4.38;;;2.00;;
63370;SDS011;49504;48.336;14.472;2022-07-01T11:50:47;3.55;;;1.60;;
63370;SDS011;49504;48.336;14.472;2022-07-01T11:55:48;3.88;;;1.70;;
63370;SDS011;49504;48.336;14.472;2022-07-01T12:01:52;3.85;;;1.60;;
63370;SDS011;49504;48.336;14.472;2022-07-01T12:06:54;3.92;;;1.52;;
63370;SDS011;49504;48.336;14.472;2022-07-01T12:11:56;6.20;;;3.45;;
63370;SDS011;49504;48.336;14.472;2022-07-01T12:16:59;5.57;;;2.55;;
63370;SDS011;49504;48.336;14.472;2022-07-01T12:22:05;4.85;;;2.50;;
63370;SDS011;49504;48.336;14.472;2022-07-01T12:27:09;5.38;;;3.00;;
63370;SDS011;49504;48.336;14.472;2022-07-01T12:32:12;18.05;;;15.45;;
63370;SDS011;49504;48.336;14.472;2022-07-01T12:37:16;22.50;;;20.27;;
63370;SDS011;49504;48.336;14.472;2022-07-01T12:42:23;14.18;;;12.75;;
63370;SDS011;49504;48.336;14.472;2022-07-01T12:47:29;16.87;;;12.93;;
63370;SDS011;49504;48.336;14.472;2022-07-01T12:54:14;8.13;;;6.95;;
63370;SDS011;49504;48.336;14.472;2022-07-01T12:59:29;7.65;;;5.82;;
63370;SDS011;49504;48.336;14.472;2022-07-01T13:04:30;8.65;;;4.90;;
63370;SDS011;49504;48.336;14.472;2022-07-01T13:10:19;6.20;;;4.15;;
63370;SDS011;49504;48.336;14.472;2022-07-01T13:20:28;4.88;;;2.92;;
63370;SDS011;49504;48.336;14.472;2022-07-01T13:25:33;5.78;;;3.33;;
63370;SDS011;49504;48.336;14.472;2022-07-01T13:30:35;4.78;;;2.83;;
63370;SDS011;49504;48.336;14.472;2022-07-01T13:35:36;4.70;;;2.58;;
63370;SDS011;49504;48.336;14.472;2022-07-01T13:40:38;5.95;;;3.22;;
63370;SDS011;49504;48.336;14.472;2022-07-01T13:45:39;5.90;;;3.28;;
63370;SDS011;49504;48.336;14.472;2022-07-01T13:50:40;4.65;;;2.90;;
63370;SDS011;49504;48.336;14.472;2022-07-01T13:55:43;4.57;;;2.60;;
63370;SDS011;49504;48.336;14.472;2022-07-01T14:00:44;5.07;;;2.42;;
63370;SDS011;49504;48.336;14.472;2022-07-01T14:05:45;4.70;;;2.78;;
63370;SDS011;49504;48.336;14.472;2022-07-01T14:10:47;4.22;;;2.38;;
63370;SDS011;49504;48.336;14.472;2022-07-01T14:15:49;4.38;;;2.60;;
63370;SDS011;49504;48.336;14.472;2022-07-01T14:20:50;4.68;;;2.58;;
63370;SDS011;49504;48.336;14.472;2022-07-01T14:25:53;4.38;;;2.53;;
63370;SDS011;49504;48.336;14.472;2022-07-01T14:30:54;4.13;;;2.10;;
63370;SDS011;49504;48.336;14.472;2022-07-01T14:35:55;3.70;;;2.30;;
63370;SDS011;49504;48.336;14.472;2022-07-01T14:40:57;3.60;;;2.15;;
63370;SDS011;49504;48.336;14.472;2022-07-01T14:45:58;4.20;;;2.50;;
63370;SDS011;49504;48.336;14.472;2022-07-01T14:50:59;4.45;;;2.53;;
63370;SDS011;49504;48.336;14.472;2022-07-01T14:56:02;4.75;;;2.65;;
63370;SDS011;49504;48.336;14.472;2022-07-01T15:01:03;5.07;;;2.22;;
63370;SDS011;49504;48.336;14.472;2022-07-01T15:09:03;3.95;;;2.10;;
63370;SDS011;49504;48.336;14.472;2022-07-01T15:14:04;3.88;;;2.00;;
63370;SDS011;49504;48.336;14.472;2022-07-01T15:19:05;4.13;;;2.25;;
63370;SDS011;49504;48.336;14.472;2022-07-01T15:24:07;4.38;;;2.45;;
63370;SDS011;49504;48.336;14.472;2022-07-01T15:29:08;10.75;;;5.47;;
63370;SDS011;49504;48.336;14.472;2022-07-01T15:34:09;8.55;;;3.80;;
63370;SDS011;49504;48.336;14.472;2022-07-01T15:39:12;6.57;;;3.38;;
63370;SDS011;49504;48.336;14.472;2022-07-01T15:44:14;8.50;;;3.42;;
63370;SDS011;49504;48.336;14.472;2022-07-01T15:49:15;11.70;;;3.10;;
63370;SDS011;49504;48.336;14.472;2022-07-01T15:55:54;5.72;;;2.90;;
63370;SDS011;49504;48.336;14.472;2022-07-01T16:00:55;5.97;;;2.60;;
63370;SDS011;49504;48.336;14.472;2022-07-01T16:05:57;9.27;;;2.53;;
63370;SDS011;49504;48.336;14.472;2022-07-01T16:11:07;4.68;;;2.20;;
63370;SDS011;49504;48.336;14.472;2022-07-01T16:16:09;6.50;;;1.92;;
63370;SDS011;49504;48.336;14.472;2022-07-01T16:21:11;6.15;;;2.15;;
63370;SDS011;49504;48.336;14.472;2022-07-01T16:26:16;4.35;;;1.95;;
63370;SDS011;49504;48.336;14.472;2022-07-01T16:31:19;5.07;;;1.83;;
63370;SDS011;49504;48.336;14.472;2022-07-01T16:36:25;3.40;;;1.48;;
63370;SDS011;49504;48.336;14.472;2022-07-01T16:41:33;5.40;;;1.67;;
63370;SDS011;49504;48.336;14.472;2022-07-01T16:46:42;3.45;;;1.33;;
63370;SDS011;49504;48.336;14.472;2022-07-01T16:51:44;3.47;;;1.50;;
63370;SDS011;49504;48.336;14.472;2022-07-01T16:56:51;5.15;;;1.42;;
63370;SDS011;49504;48.336;14.472;2022-07-01T17:01:56;4.10;;;1.27;;
63370;SDS011;49504;48.336;14.472;2022-07-01T17:06:59;3.45;;;1.00;;
63370;SDS011;49504;48.336;14.472;2022-07-01T17:12:05;2.65;;;1.15;;
63370;SDS011;49504;48.336;14.472;2022-07-01T17:17:08;3.65;;;1.35;;
63370;SDS011;49504;48.336;14.472;2022-07-01T17:22:12;6.85;;;1.42;;
63370;SDS011;49504;48.336;14.472;2022-07-01T17:27:18;2.53;;;0.88;;
63370;SDS011;49504;48.336;14.472;2022-07-01T17:32:38;3.15;;;1.15;;
63370;SDS011;49504;48.336;14.472;2022-07-01T17:37:44;3.10;;;1.10;;
63370;SDS011;49504;48.336;14.472;2022-07-01T17:42:50;2.42;;;0.80;;
63370;SDS011;49504;48.336;14.472;2022-07-01T17:47:56;2.45;;;0.93;;
63370;SDS011;49504;48.336;14.472;2022-07-01T17:59:52;3.55;;;1.20;;
63370;SDS011;49504;48.336;14.472;2022-07-01T18:04:56;3.65;;;1.17;;
63370;SDS011;49504;48.336;14.472;2022-07-01T18:10:00;2.67;;;1.08;;
63370;SDS011;49504;48.336;14.472;2022-07-01T18:15:03;4.70;;;0.98;;
63370;SDS011;49504;48.336;14.472;2022-07-01T18:21:12;2.83;;;0.73;;
63370;SDS011;49504;48.336;14.472;2022-07-01T18:26:18;3.22;;;0.70;;
63370;SDS011;49504;48.336;14.472;2022-07-01T18:31:23;2.88;;;0.70;;
63370;SDS011;49504;48.336;14.472;2022-07-01T18:36:29;2.65;;;0.80;;
63370;SDS011;49504;48.336;14.472;2022-07-01T18:41:32;2.40;;;0.60;;
63370;SDS011;49504;48.336;14.472;2022-07-01T18:46:33;1.67;;;0.57;;
63370;SDS011;49504;48.336;14.472;2022-07-01T18:51:37;2.63;;;0.70;;
63370;SDS011;49504;48.336;14.472;2022-07-01T18:56:39;2.70;;;0.63;;
63370;SDS011;49504;48.336;14.472;2022-07-01T19:01:40;1.80;;;0.50;;
63370;SDS011;49504;48.336;14.472;2022-07-01T19:06:43;1.83;;;0.70;;
63370;SDS011;49504;48.336;14.472;2022-07-01T19:11:44;2.50;;;0.70;;
63370;SDS011;49504;48.336;14.472;2022-07-01T19:16:45;2.38;;;0.75;;
63370;SDS011;49504;48.336;14.472;2022-07-01T19:25:18;2.63;;;0.60;;
63370;SDS011;49504;48.336;14.472;2022-07-01T19:30:19;2.63;;;0.70;;
63370;SDS011;49504;48.336;14.472;2022-07-01T19:35:20;2.42;;;0.68;;
63370;SDS011;49504;48.336;14.472;2022-07-01T19:40:26;3.78;;;0.70;;
63370;SDS011;49504;48.336;14.472;2022-07-01T19:45:28;2.08;;;0.60;;
63370;SDS011;49504;48.336;14.472;2022-07-01T19:50:31;2.72;;;0.80;;
63370;SDS011;49504;48.336;14.472;2022-07-01T19:55:33;1.83;;;0.57;;
63370;SDS011;49504;48.336;14.472;2022-07-01T20:00:34;2.20;;;0.50;;
63370;SDS011;49504;48.336;14.472;2022-07-01T20:05:35;1.67;;;0.50;;
63370;SDS011;49504;48.336;14.472;2022-07-01T20:10:38;2.00;;;0.52;;
63370;SDS011;49504;48.336;14.472;2022-07-01T20:15:39;2.20;;;0.60;;
63370;SDS011;49504;48.336;14.472;2022-07-01T20:20:40;0.85;;;0.30;;
63370;SDS011;49504;48.336;14.472;2022-07-01T20:25:42;1.20;;;0.40;;
63370;SDS011;49504;48.336;14.472;2022-07-01T20:30:43;1.45;;;0.35;;
63370;SDS011;49504;48.336;14.472;2022-07-01T20:35:44;2.15;;;0.50;;
63370;SDS011;49504;48.336;14.472;2022-07-01T20:40:47;1.85;;;0.57;;
63370;SDS011;49504;48.336;14.472;2022-07-01T20:45:48;2.28;;;0.82;;
63370;SDS011;49504;48.336;14.472;2022-07-01T20:50:49;2.35;;;0.40;;
63370;SDS011;49504;48.336;14.472;2022-07-01T20:55:51;1.23;;;0.30;;
